createdAt,value
2019-02-22T00:02:32.051Z,103095.74
2019-02-22T00:04:59.119Z,103094.83
2019-02-22T00:07:26.186Z,103098.27
2019-02-22T00:09:53.277Z,103102.61
2019-02-22T00:12:20.345Z,103103.52
2019-02-22T00:14:47.436Z,103104.53
2019-02-22T00:17:14.523Z,103097.86
2019-02-22T00:19:41.570Z,103104.03
2019-02-22T00:22:08.618Z,103102.20
2019-02-22T00:24:35.702Z,103100.09
2019-02-22T00:27:02.804Z,103107.16
2019-02-22T00:29:29.865Z,103101.40
2019-02-22T00:31:57.027Z,103101.60
2019-02-22T00:34:24.108Z,103099.58
2019-02-22T00:36:51.177Z,103105.64
2019-02-22T00:39:18.238Z,103109.38
2019-02-22T00:41:45.347Z,103106.86
2019-02-22T00:44:12.423Z,103109.78
2019-02-22T00:46:39.486Z,103118.17
2019-02-22T00:49:06.584Z,103120.39
2019-02-22T00:51:33.682Z,103124.64
2019-02-22T00:54:00.750Z,103123.62
2019-02-22T00:56:27.835Z,103118.27
2019-02-22T00:58:54.886Z,103125.64
2019-02-22T01:01:21.942Z,103124.23
2019-02-22T01:03:49.036Z,103129.48
2019-02-22T01:06:16.228Z,103131.30
2019-02-22T01:08:43.616Z,103141.51
2019-02-22T01:11:10.709Z,103139.19
2019-02-22T01:13:37.761Z,103142.22
2019-02-22T01:16:04.820Z,103137.63
2019-02-22T01:18:31.891Z,103147.33
2019-02-22T01:20:58.971Z,103148.64
2019-02-22T01:23:26.004Z,103153.53
2019-02-22T01:25:53.081Z,103151.27
2019-02-22T01:28:20.151Z,103155.34
2019-02-22T01:30:47.188Z,103152.08
2019-02-22T01:33:14.284Z,103147.63
2019-02-22T01:35:41.341Z,103157.84
2019-02-22T01:38:08.385Z,103156.02
2019-02-22T01:40:42.984Z,103147.73
2019-02-22T01:43:04.447Z,103154.54
2019-02-22T01:45:31.522Z,103154.44
2019-02-22T01:47:58.595Z,103154.84
2019-02-22T01:50:25.705Z,103153.53
2019-02-22T01:52:52.883Z,103156.66
2019-02-22T01:55:19.977Z,103154.54
2019-02-22T01:57:47.042Z,103160.70
2019-02-22T02:00:14.690Z,103166.26
2019-02-22T02:02:41.811Z,103163.23
2019-02-22T02:05:08.976Z,103169.66
2019-02-22T02:07:36.024Z,103169.89
2019-02-22T02:10:03.550Z,103167.67
2019-02-22T02:12:30.625Z,103173.33
2019-02-22T02:14:57.670Z,103172.92
2019-02-22T02:17:24.780Z,103174.64
2019-02-22T02:19:52.200Z,103171.52
2019-02-22T02:22:19.360Z,103178.08
2019-02-22T02:24:46.429Z,103177.38
2019-02-22T02:27:13.538Z,103165.85
2019-02-22T02:34:16.794Z,103178.58
2019-02-22T02:36:43.855Z,103180.06
2019-02-22T02:39:10.935Z,103178.54
2019-02-22T02:41:38.029Z,103176.42
2019-02-22T02:44:05.082Z,103177.62
2019-02-22T02:46:32.240Z,103187.94
2019-02-22T02:48:59.348Z,103181.27
2019-02-22T02:51:26.454Z,103182.17
2019-02-22T02:53:53.548Z,103182.17
2019-02-22T02:56:20.598Z,103182.17
2019-02-22T02:58:47.694Z,103179.05
2019-02-22T03:01:14.780Z,103182.58
2019-02-22T03:03:41.845Z,103177.03
2019-02-22T03:06:27.162Z,103171.57
2019-02-22T03:08:54.218Z,103178.03
2019-02-22T03:11:21.479Z,103175.81
2019-02-22T03:13:48.670Z,103167.42
2019-02-22T03:16:15.722Z,103176.31
2019-02-22T03:18:42.776Z,103177.93
2019-02-22T03:21:09.852Z,103181.36
2019-02-22T03:23:37.053Z,103183.98
2019-02-22T03:26:04.234Z,103186.02
2019-02-22T03:28:31.297Z,103185.00
2019-02-22T03:30:58.405Z,103190.36
2019-02-22T03:33:25.455Z,103193.09
2019-02-22T03:35:52.492Z,103198.44
2019-02-22T03:38:19.571Z,103203.69
2019-02-22T03:40:46.637Z,103209.66
2019-02-22T03:43:13.707Z,103202.17
2019-02-22T03:45:40.792Z,103203.78
2019-02-22T03:48:07.845Z,103202.98
2019-02-22T03:50:34.939Z,103203.59
2019-02-22T03:53:24.328Z,103211.67
2019-02-22T03:55:51.415Z,103217.72
2019-02-22T03:58:18.602Z,103212.47
2019-02-22T04:00:45.663Z,103221.47
2019-02-22T04:06:44.573Z,103223.08
2019-02-22T04:09:11.624Z,103230.24
2019-02-22T04:11:45.802Z,103228.12
2019-02-22T04:14:07.886Z,103227.91
2019-02-22T04:16:34.943Z,103234.98
2019-02-22T04:19:02.476Z,103240.34
2019-02-22T04:21:29.522Z,103250.45
2019-02-22T04:23:58.250Z,103253.37
2019-02-22T04:26:25.330Z,103259.94
2019-02-22T04:28:54.322Z,103261.95
2019-02-22T04:31:22.248Z,103264.68
2019-02-22T04:33:49.339Z,103265.98
2019-02-22T04:36:16.394Z,103264.68
2019-02-22T04:38:43.440Z,103265.08
2019-02-22T04:41:10.516Z,103264.47
2019-02-22T04:43:37.670Z,103250.53
2019-02-22T04:46:04.720Z,103261.73
2019-02-22T04:48:31.815Z,103258.70
2019-02-22T04:50:58.919Z,103254.26
2019-02-22T04:53:25.961Z,103251.02
2019-02-22T04:55:53.050Z,103255.06
2019-02-22T04:58:20.096Z,103256.27
2019-02-22T05:00:47.190Z,103259.30
2019-02-22T05:03:14.286Z,103257.48
2019-02-22T05:05:41.333Z,103268.78
2019-02-22T05:08:08.383Z,103265.65
2019-02-22T05:10:35.462Z,103272.72
2019-02-22T05:13:02.516Z,103275.64
2019-02-22T05:15:29.575Z,103281.80
2019-02-22T05:17:56.632Z,103279.18
2019-02-22T05:20:23.733Z,103292.20
2019-02-22T05:23:02.985Z,103293.00
2019-02-22T05:25:19.779Z,103301.69
2019-02-22T05:27:46.850Z,103303.29
2019-02-22T05:30:13.960Z,103304.20
2019-02-22T05:32:41.055Z,103315.40
2019-02-22T05:35:09.416Z,103312.77
2019-02-22T05:37:36.486Z,103312.16
2019-02-22T05:40:03.660Z,103313.87
2019-02-22T05:42:30.722Z,103310.23
2019-02-22T05:44:57.839Z,103312.95
2019-02-22T05:47:24.919Z,103316.49
2019-02-22T05:49:51.969Z,103317.59
2019-02-22T05:52:19.226Z,103317.98
2019-02-22T05:54:52.780Z,103322.84
2019-02-22T05:57:19.823Z,103322.73
2019-02-22T05:59:46.921Z,103321.92
2019-02-22T06:02:14.736Z,103327.17
2019-02-22T06:04:41.861Z,103327.58
2019-02-22T06:07:09.078Z,103325.87
2019-02-22T06:09:36.144Z,103333.34
2019-02-22T06:12:03.193Z,103332.31
2019-02-22T06:14:30.293Z,103331.81
2019-02-22T06:16:57.367Z,103334.33
2019-02-22T06:19:24.439Z,103343.11
2019-02-22T06:21:51.553Z,103350.98
2019-02-22T06:24:18.644Z,103351.78
2019-02-22T06:26:45.727Z,103354.52
2019-02-22T06:29:12.825Z,103362.50
2019-02-22T06:31:39.883Z,103372.78
2019-02-22T06:34:06.971Z,103369.25
2019-02-22T06:36:35.236Z,103373.70
2019-02-22T06:39:02.334Z,103374.09
2019-02-22T06:41:29.405Z,103373.98
2019-02-22T06:43:56.599Z,103375.70
2019-02-22T06:46:23.675Z,103372.67
2019-02-22T06:48:50.750Z,103372.56
2019-02-22T06:51:24.460Z,103378.72
2019-02-22T06:54:08.065Z,103373.36
2019-02-22T06:56:35.274Z,103378.79
2019-02-22T06:59:02.344Z,103381.23
2019-02-22T07:01:29.437Z,103384.27
2019-02-22T07:03:56.638Z,103393.45
2019-02-22T07:06:24.279Z,103390.83
2019-02-22T07:08:51.438Z,103385.28
2019-02-22T07:11:28.394Z,103393.16
2019-02-22T07:13:55.439Z,103395.27
2019-02-22T07:16:22.591Z,103392.76
2019-02-22T07:18:50.000Z,103399.32
2019-02-22T07:21:21.572Z,103404.28
2019-02-22T07:23:49.085Z,103409.13
2019-02-22T07:26:20.523Z,103418.83
2019-02-22T07:28:47.676Z,103424.48
2019-02-22T07:31:14.793Z,103422.36
2019-02-22T07:33:41.841Z,103429.44
2019-02-22T07:36:09.164Z,103429.03
2019-02-22T07:38:36.280Z,103431.77
2019-02-22T07:41:03.463Z,103434.52
2019-02-22T07:43:30.520Z,103437.53
2019-02-22T07:45:57.633Z,103444.21
2019-02-22T07:48:25.781Z,103445.92
2019-02-22T07:50:57.561Z,103451.28
2019-02-22T07:53:21.844Z,103449.06
2019-02-22T07:55:48.922Z,103458.36
2019-02-22T07:58:16.237Z,103459.56
2019-02-22T08:00:43.337Z,103465.21
2019-02-22T08:03:10.388Z,103467.03
2019-02-22T08:05:37.446Z,103478.05
2019-02-22T08:08:04.523Z,103476.34
2019-02-22T08:10:33.385Z,103479.70
2019-02-22T08:13:00.649Z,103483.13
2019-02-22T08:15:27.867Z,103487.57
2019-02-22T08:17:54.925Z,103494.65
2019-02-22T08:20:22.000Z,103498.30
2019-02-22T08:22:49.151Z,103503.78
2019-02-22T08:25:16.311Z,103507.20
2019-02-22T08:27:53.123Z,103518.84
2019-02-22T08:30:12.573Z,103506.34
2019-02-22T08:32:39.705Z,103514.44
2019-02-22T08:35:07.147Z,103515.35
2019-02-22T08:37:34.241Z,103522.03
2019-02-22T08:40:02.611Z,103523.05
2019-02-22T08:42:29.852Z,103525.68
2019-02-22T08:44:56.963Z,103527.91
2019-02-22T08:47:24.037Z,103521.27
2019-02-22T08:49:51.096Z,103525.22
2019-02-22T08:52:19.442Z,103537.14
2019-02-22T08:54:47.448Z,103545.54
2019-02-22T08:57:14.614Z,103553.30
2019-02-22T08:59:41.855Z,103554.50
2019-02-22T09:02:09.042Z,103556.33
2019-02-22T09:04:36.226Z,103546.34
2019-02-22T09:07:03.392Z,103543.83
2019-02-22T09:09:30.458Z,103545.80
2019-02-22T09:11:57.951Z,103546.42
2019-02-22T09:14:25.046Z,103545.84
2019-02-22T09:16:52.199Z,103546.47
2019-02-22T09:19:19.306Z,103544.46
2019-02-22T09:21:46.370Z,103547.38
2019-02-22T09:24:13.438Z,103549.09
2019-02-22T09:26:40.538Z,103554.17
2019-02-22T09:29:07.640Z,103554.91
2019-02-22T09:31:34.895Z,103562.31
2019-02-22T09:34:02.010Z,103569.39
2019-02-22T09:36:29.107Z,103576.59
2019-02-22T09:38:56.157Z,103574.07
2019-02-22T09:41:23.258Z,103571.44
2019-02-22T09:44:20.874Z,103584.30
2019-02-22T09:46:48.067Z,103582.69
2019-02-22T09:49:15.113Z,103588.28
2019-02-22T09:51:42.377Z,103592.16
2019-02-22T09:54:09.471Z,103581.23
2019-02-22T09:56:36.567Z,103595.44
2019-02-22T09:59:03.675Z,103587.44
2019-02-22T10:01:30.800Z,103589.78
2019-02-22T10:03:58.086Z,103597.08
2019-02-22T10:06:25.204Z,103596.50
2019-02-22T10:08:52.256Z,103600.77
2019-02-22T10:11:19.302Z,103595.30
2019-02-22T10:13:46.385Z,103596.94
2019-02-22T10:16:14.738Z,103595.44
2019-02-22T10:18:41.811Z,103600.52
2019-02-22T10:21:08.911Z,103602.84
2019-02-22T10:23:35.961Z,103594.55
2019-02-22T10:26:12.584Z,103605.41
2019-02-22T10:28:39.720Z,103603.31
2019-02-22T10:31:06.775Z,103602.91
2019-02-22T10:33:36.941Z,103606.34
2019-02-22T10:36:03.101Z,103611.82
2019-02-22T10:38:32.945Z,103606.48
2019-02-22T10:40:59.240Z,103610.64
2019-02-22T10:43:26.406Z,103611.95
2019-02-22T10:45:53.522Z,103623.50
2019-02-22T10:48:20.605Z,103627.55
2019-02-22T10:50:47.769Z,103627.84
2019-02-22T10:53:15.254Z,103630.80
2019-02-22T10:55:42.307Z,103628.28
2019-02-22T10:58:26.146Z,103624.23
2019-02-22T11:00:53.204Z,103632.12
2019-02-22T11:03:20.268Z,103632.73
2019-02-22T11:05:47.438Z,103632.29
2019-02-22T11:08:16.628Z,103636.07
2019-02-22T11:10:43.692Z,103638.72
2019-02-22T11:13:11.993Z,103632.92
2019-02-22T11:15:39.058Z,103631.81
2019-02-22T11:18:06.124Z,103628.30
2019-02-22T11:20:33.228Z,103629.32
2019-02-22T11:23:00.363Z,103623.27
2019-02-22T11:25:27.526Z,103618.30
2019-02-22T11:27:55.030Z,103621.65
2019-02-22T11:30:22.090Z,103627.53
2019-02-22T11:32:49.157Z,103617.99
2019-02-22T11:35:19.066Z,103625.90
2019-02-22T11:37:46.138Z,103625.88
2019-02-22T11:40:13.199Z,103624.55
2019-02-22T11:42:40.318Z,103621.88
2019-02-22T11:45:07.489Z,103624.13
2019-02-22T11:47:34.519Z,103618.77
2019-02-22T11:50:01.598Z,103629.30
2019-02-22T11:52:28.740Z,103617.59
2019-02-22T11:54:55.939Z,103616.97
2019-02-22T11:57:23.092Z,103621.02
2019-02-22T11:59:50.167Z,103616.34
2019-02-22T12:02:19.437Z,103616.34
2019-02-22T12:04:46.587Z,103613.27
2019-02-22T12:07:13.784Z,103619.67
2019-02-22T12:09:42.866Z,103615.22
2019-02-22T12:12:10.160Z,103621.19
2019-02-22T12:14:37.237Z,103612.70
2019-02-22T12:17:04.338Z,103609.27
2019-02-22T12:19:31.378Z,103606.87
2019-02-22T12:21:58.639Z,103607.05
2019-02-22T12:24:25.766Z,103615.84
2019-02-22T12:26:52.897Z,103613.88
2019-02-22T12:29:19.935Z,103617.44
2019-02-22T12:31:47.020Z,103617.44
2019-02-22T12:34:14.063Z,103615.11
2019-02-22T12:36:41.286Z,103614.93
2019-02-22T12:39:08.722Z,103609.09
2019-02-22T12:41:35.830Z,103606.68
2019-02-22T12:44:03.016Z,103611.73
2019-02-22T12:46:31.780Z,103613.92
2019-02-22T12:49:16.425Z,103618.23
2019-02-22T12:51:49.115Z,103623.05
2019-02-22T12:54:16.273Z,103622.06
2019-02-22T12:56:56.615Z,103625.43
2019-02-22T12:59:12.359Z,103617.86
2019-02-22T13:01:39.392Z,103626.28
2019-02-22T13:04:06.636Z,103625.84
2019-02-22T13:06:33.747Z,103628.55
2019-02-22T13:09:00.806Z,103627.09
2019-02-22T13:11:27.931Z,103627.79
2019-02-22T13:13:54.970Z,103631.99
2019-02-22T13:16:22.132Z,103631.86
2019-02-22T13:18:49.347Z,103627.17
2019-02-22T13:21:16.433Z,103633.28
2019-02-22T13:23:43.514Z,103637.47
2019-02-22T13:26:10.565Z,103633.59
2019-02-22T13:28:38.907Z,103632.87
2019-02-22T13:31:05.965Z,103630.50
2019-02-22T13:33:33.302Z,103620.40
2019-02-22T13:36:00.404Z,103617.21
2019-02-22T13:38:27.484Z,103614.16
2019-02-22T13:40:54.735Z,103612.93
2019-02-22T13:43:21.875Z,103611.47
2019-02-22T13:45:48.916Z,103603.04
2019-02-22T13:48:16.027Z,103600.81
2019-02-22T13:50:43.072Z,103600.62
2019-02-22T13:53:10.159Z,103605.64
2019-02-22T13:56:02.230Z,103598.12
2019-02-22T13:58:29.365Z,103597.39
2019-02-22T14:00:56.562Z,103606.41
2019-02-22T14:03:24.867Z,103607.23
2019-02-22T14:05:51.921Z,103612.56
2019-02-22T14:08:19.946Z,103624.59
2019-02-22T14:10:47.250Z,103627.27
2019-02-22T14:13:14.318Z,103626.40
2019-02-22T14:15:41.415Z,103622.16
2019-02-22T14:18:08.751Z,103633.48
2019-02-22T14:20:35.820Z,103625.09
2019-02-22T14:23:03.819Z,103627.85
2019-02-22T14:25:31.126Z,103627.06
2019-02-22T14:27:58.321Z,103626.00
2019-02-22T14:30:25.390Z,103623.13
2019-02-22T14:32:52.474Z,103623.49
2019-02-22T14:35:19.592Z,103625.27
2019-02-22T14:37:46.674Z,103622.13
2019-02-22T14:40:13.782Z,103622.13
2019-02-22T14:42:40.842Z,103629.09
2019-02-22T14:45:08.442Z,103626.09
2019-02-22T14:47:35.683Z,103626.37
2019-02-22T14:50:03.217Z,103633.52
2019-02-22T14:52:30.602Z,103633.56
2019-02-22T14:54:57.705Z,103634.84
2019-02-22T14:57:24.831Z,103639.80
2019-02-22T14:59:52.016Z,103647.96
2019-02-22T15:02:19.149Z,103648.00
2019-02-22T15:04:46.354Z,103644.91
2019-02-22T15:07:13.399Z,103641.90
2019-02-22T15:09:40.550Z,103632.79
2019-02-22T15:12:07.641Z,103631.59
2019-02-22T15:14:34.889Z,103634.65
2019-02-22T15:17:20.274Z,103635.61
2019-02-22T15:19:47.337Z,103635.84
2019-02-22T15:22:14.440Z,103644.05
2019-02-22T15:24:41.557Z,103641.58
2019-02-22T15:27:08.628Z,103640.21
2019-02-22T15:29:35.766Z,103641.39
2019-02-22T15:32:02.821Z,103647.18
2019-02-22T15:34:30.233Z,103651.06
2019-02-22T15:36:57.451Z,103648.62
2019-02-22T15:39:24.780Z,103638.66
2019-02-22T15:41:51.939Z,103641.49
2019-02-22T15:44:19.144Z,103647.64
2019-02-22T15:46:46.171Z,103649.92
2019-02-22T15:49:13.287Z,103652.38
2019-02-22T15:52:19.959Z,103652.10
2019-02-22T15:54:47.127Z,103655.06
2019-02-22T15:57:14.233Z,103651.67
2019-02-22T15:59:41.458Z,103654.57
2019-02-22T16:02:08.675Z,103653.59
2019-02-22T16:04:45.171Z,103647.94
2019-02-22T16:07:12.470Z,103651.39
2019-02-22T16:09:39.537Z,103649.26
2019-02-22T16:12:06.598Z,103650.70
2019-02-22T16:14:33.817Z,103655.41
2019-02-22T16:17:03.190Z,103662.84
2019-02-22T16:19:30.323Z,103666.30
2019-02-22T16:21:57.598Z,103660.33
2019-02-22T16:24:26.486Z,103657.80
2019-02-22T16:27:02.817Z,103664.92
2019-02-22T16:29:31.121Z,103667.27
2019-02-22T16:31:58.423Z,103667.07
2019-02-22T16:34:25.503Z,103667.14
2019-02-22T16:36:52.596Z,103670.67
2019-02-22T16:39:19.672Z,103665.61
2019-02-22T16:41:46.752Z,103678.50
2019-02-22T16:44:13.840Z,103672.11
2019-02-22T16:46:41.077Z,103667.76
2019-02-22T16:49:08.176Z,103666.95
2019-02-22T16:51:35.241Z,103666.14
2019-02-22T16:54:02.379Z,103665.74
2019-02-22T16:56:29.599Z,103670.70
2019-02-22T16:58:56.644Z,103663.91
2019-02-22T17:01:23.827Z,103670.86
2019-02-22T17:03:50.933Z,103675.88
2019-02-22T17:06:18.034Z,103681.89
2019-02-22T17:08:45.097Z,103688.60
2019-02-22T17:11:12.225Z,103692.01
2019-02-22T17:13:39.294Z,103692.13
2019-02-22T17:16:06.359Z,103690.59
2019-02-22T17:18:33.573Z,103700.64
2019-02-22T17:21:20.337Z,103708.34
2019-02-22T17:23:47.510Z,103708.36
2019-02-22T17:26:15.440Z,103701.58
2019-02-22T17:28:42.583Z,103700.44
2019-02-22T17:31:09.660Z,103698.61
2019-02-22T17:33:36.956Z,103694.84
2019-02-22T17:36:04.121Z,103695.70
2019-02-22T17:38:31.235Z,103693.34
2019-02-22T17:40:58.309Z,103696.63
2019-02-22T17:43:25.547Z,103703.35
2019-02-22T17:45:52.616Z,103713.38
2019-02-22T17:48:19.798Z,103714.48
2019-02-22T17:50:47.060Z,103714.37
2019-02-22T17:53:14.536Z,103709.48
2019-02-22T17:55:41.668Z,103709.03
2019-02-22T17:58:08.792Z,103721.42
2019-02-22T18:00:35.918Z,103720.16
2019-02-22T18:03:03.093Z,103717.30
2019-02-22T18:05:30.230Z,103709.95
2019-02-22T18:07:57.490Z,103708.57
2019-02-22T18:10:31.944Z,103703.77
2019-02-22T18:12:59.063Z,103707.87
2019-02-22T18:15:26.383Z,103717.19
2019-02-22T18:17:53.512Z,103721.38
2019-02-22T18:20:20.632Z,103726.58
2019-02-22T18:22:48.103Z,103714.02
2019-02-22T18:25:15.187Z,103701.77
2019-02-22T18:27:42.374Z,103702.20
2019-02-22T18:30:10.674Z,103700.27
2019-02-22T18:32:37.734Z,103694.39
2019-02-22T18:35:05.141Z,103694.13
2019-02-22T18:37:32.387Z,103695.72
2019-02-22T18:39:59.550Z,103698.22
2019-02-22T18:43:22.029Z,103699.02
2019-02-22T18:45:49.187Z,103710.28
2019-02-22T18:48:16.424Z,103712.90
2019-02-22T18:50:43.525Z,103710.51
2019-02-22T18:53:10.700Z,103718.11
2019-02-22T18:55:49.165Z,103719.70
2019-02-22T18:58:07.002Z,103721.41
2019-02-22T19:00:34.133Z,103724.66
2019-02-22T19:03:01.247Z,103737.20
2019-02-22T19:05:28.441Z,103739.14
2019-02-22T19:07:55.629Z,103743.44
2019-02-22T19:10:28.023Z,103746.83
2019-02-22T19:12:55.143Z,103757.08
2019-02-22T19:15:22.205Z,103758.92
2019-02-22T19:17:49.657Z,103755.54
2019-02-22T19:20:16.894Z,103756.88
2019-02-22T19:22:44.028Z,103758.32
2019-02-22T19:25:11.258Z,103767.09
2019-02-22T19:27:38.463Z,103773.63
2019-02-22T19:30:07.431Z,103770.48
2019-02-22T19:32:34.578Z,103759.75
2019-02-22T19:35:20.089Z,103753.59
2019-02-22T19:37:47.262Z,103756.60
2019-02-22T19:40:33.815Z,103763.48
2019-02-22T19:43:01.127Z,103760.08
2019-02-22T19:45:28.434Z,103753.41
2019-02-22T19:47:55.627Z,103754.70
2019-02-22T19:51:19.090Z,103745.41
2019-02-22T19:53:46.158Z,103747.88
2019-02-22T19:56:13.272Z,103750.84
2019-02-22T19:58:40.502Z,103754.98
2019-02-22T20:01:08.586Z,103760.52
2019-02-22T20:03:35.756Z,103758.16
2019-02-22T20:06:03.017Z,103756.83
2019-02-22T20:08:30.182Z,103754.59
2019-02-22T20:10:57.264Z,103761.76
2019-02-22T20:13:24.383Z,103755.09
2019-02-22T20:16:11.949Z,103759.12
2019-02-22T20:18:39.282Z,103763.31
2019-02-22T20:21:06.434Z,103765.90
2019-02-22T20:23:33.534Z,103773.70
2019-02-22T20:26:00.648Z,103761.01
2019-02-22T20:28:28.159Z,103767.20
2019-02-22T20:30:55.214Z,103766.02
2019-02-22T20:33:43.068Z,103766.78
2019-02-22T20:36:10.386Z,103774.95
2019-02-22T20:38:37.487Z,103772.70
2019-02-22T20:41:05.668Z,103772.54
2019-02-22T20:43:34.023Z,103778.09
2019-02-22T20:46:01.258Z,103780.00
2019-02-22T20:48:28.394Z,103782.86
2019-02-22T20:50:55.592Z,103785.05
2019-02-22T20:53:22.773Z,103793.13
2019-02-22T20:55:49.997Z,103789.98
2019-02-22T20:58:17.082Z,103778.63
2019-02-22T21:00:44.151Z,103783.95
2019-02-22T21:03:11.391Z,103790.88
2019-02-22T21:05:44.597Z,103793.09
2019-02-22T21:08:11.824Z,103797.30
2019-02-22T21:10:38.924Z,103798.31
2019-02-22T21:13:05.994Z,103794.36
2019-02-22T21:19:04.997Z,103802.22
2019-02-22T21:21:44.546Z,103809.81
2019-02-22T21:24:11.595Z,103804.45
2019-02-22T21:27:12.510Z,103810.69
2019-02-22T21:29:40.818Z,103815.03
2019-02-22T21:32:15.700Z,103805.83
2019-02-22T21:34:42.755Z,103810.20
2019-02-22T21:37:27.999Z,103804.14
2019-02-22T21:39:55.082Z,103809.86
2019-02-22T21:42:22.239Z,103813.73
2019-02-22T21:44:49.371Z,103814.08
2019-02-22T21:47:16.676Z,103812.92
2019-02-22T21:49:43.853Z,103816.69
2019-02-22T21:52:29.456Z,103825.23
2019-02-22T21:54:56.607Z,103825.48
2019-02-22T21:57:23.708Z,103821.28
2019-02-22T21:59:50.890Z,103827.67
2019-02-22T22:02:17.930Z,103823.64
2019-02-22T22:04:52.391Z,103821.62
2019-02-22T22:07:19.729Z,103820.37
2019-02-22T22:09:46.887Z,103814.95
2019-02-22T22:12:13.952Z,103815.09
2019-02-22T22:14:41.045Z,103814.31
2019-02-22T22:17:08.130Z,103815.23
2019-02-22T22:19:35.209Z,103809.36
2019-02-22T22:22:02.413Z,103806.91
2019-02-22T22:24:29.501Z,103811.88
2019-02-22T22:26:56.554Z,103809.50
2019-02-22T22:29:23.835Z,103811.28
2019-02-22T22:31:50.907Z,103803.63
2019-02-22T22:34:17.985Z,103803.86
2019-02-22T22:36:45.077Z,103808.28
2019-02-22T22:39:12.456Z,103812.55
2019-02-22T22:41:39.546Z,103816.34
2019-02-22T22:44:25.188Z,103810.55
2019-02-22T22:46:52.315Z,103806.60
2019-02-22T22:49:19.381Z,103804.23
2019-02-22T22:51:46.449Z,103804.09
2019-02-22T22:54:13.548Z,103809.74
2019-02-22T22:56:40.636Z,103806.41
2019-02-22T22:59:07.854Z,103800.02
2019-02-22T23:01:37.216Z,103797.85
2019-02-22T23:04:04.342Z,103798.55
2019-02-22T23:06:31.387Z,103796.66
2019-02-22T23:08:58.474Z,103793.79
2019-02-22T23:11:25.614Z,103790.78
2019-02-22T23:13:52.629Z,103792.76
2019-02-22T23:16:19.724Z,103797.98
2019-02-22T23:18:46.849Z,103798.79
2019-02-22T23:21:13.912Z,103799.20
2019-02-22T23:24:19.066Z,103800.00
2019-02-22T23:26:46.174Z,103798.83
2019-02-22T23:29:13.327Z,103800.94
2019-02-22T23:31:40.421Z,103801.46
2019-02-22T23:34:07.496Z,103804.86
2019-02-22T23:36:34.549Z,103808.91
2019-02-22T23:39:01.629Z,103805.13
2019-02-22T23:41:28.707Z,103801.46
2019-02-22T23:43:55.913Z,103807.20
2019-02-22T23:46:23.034Z,103811.90
2019-02-22T23:48:50.092Z,103812.70
2019-02-22T23:51:17.227Z,103813.62
2019-02-22T23:54:09.766Z,103818.19
2019-02-22T23:56:36.938Z,103815.41
2019-02-22T23:59:04.057Z,103814.72
